sensor_id;sensor_type;location;lat;lon;timestamp;P1;durP1;ratioP1;P2;durP2;ratioP2
70420;SDS011;57848;51.938;15.520;2023-06-22T00:00:56;15.38;;;11.18;;
70420;SDS011;57848;51.938;15.520;2023-06-22T00:03:23;17.17;;;10.73;;
70420;SDS011;57848;51.938;15.520;2023-06-22T00:05:49;16.80;;;11.35;;
70420;SDS011;57848;51.938;15.520;2023-06-22T00:08:15;15.88;;;11.48;;
70420;SDS011;57848;51.938;15.520;2023-06-22T00:10:42;14.77;;;10.53;;
70420;SDS011;57848;51.938;15.520;2023-06-22T00:13:08;15.57;;;10.18;;
70420;SDS011;57848;51.938;15.520;2023-06-22T00:15:35;14.45;;;10.63;;
70420;SDS011;57848;51.938;15.520;2023-06-22T00:18:02;16.55;;;11.00;;
70420;SDS011;57848;51.938;15.520;2023-06-22T00:20:28;14.88;;;10.32;;
70420;SDS011;57848;51.938;15.520;2023-06-22T00:22:55;15.33;;;10.77;;
70420;SDS011;57848;51.938;15.520;2023-06-22T00:25:21;17.45;;;11.00;;
70420;SDS011;57848;51.938;15.520;2023-06-22T00:27:47;16.38;;;11.10;;
70420;SDS011;57848;51.938;15.520;2023-06-22T00:30:12;15.87;;;10.50;;
70420;SDS011;57848;51.938;15.520;2023-06-22T00:32:38;17.25;;;10.38;;
70420;SDS011;57848;51.938;15.520;2023-06-22T00:35:03;16.17;;;11.57;;
70420;SDS011;57848;51.938;15.520;2023-06-22T00:37:29;15.95;;;10.90;;
70420;SDS011;57848;51.938;15.520;2023-06-22T00:39:55;14.70;;;10.80;;
70420;SDS011;57848;51.938;15.520;2023-06-22T00:42:21;15.13;;;10.85;;
70420;SDS011;57848;51.938;15.520;2023-06-22T00:44:47;16.27;;;10.82;;
70420;SDS011;57848;51.938;15.520;2023-06-22T00:47:13;17.13;;;10.93;;
70420;SDS011;57848;51.938;15.520;2023-06-22T00:49:41;17.08;;;11.23;;
70420;SDS011;57848;51.938;15.520;2023-06-22T00:52:07;14.53;;;10.47;;
70420;SDS011;57848;51.938;15.520;2023-06-22T00:54:36;18.70;;;11.38;;
70420;SDS011;57848;51.938;15.520;2023-06-22T00:57:02;15.90;;;10.80;;
70420;SDS011;57848;51.938;15.520;2023-06-22T00:59:27;18.70;;;10.97;;
70420;SDS011;57848;51.938;15.520;2023-06-22T01:01:53;16.02;;;10.90;;
70420;SDS011;57848;51.938;15.520;2023-06-22T01:04:19;15.95;;;11.50;;
70420;SDS011;57848;51.938;15.520;2023-06-22T01:07:01;15.23;;;11.13;;
70420;SDS011;57848;51.938;15.520;2023-06-22T01:09:39;18.63;;;11.85;;
70420;SDS011;57848;51.938;15.520;2023-06-22T01:12:26;15.57;;;12.23;;
70420;SDS011;57848;51.938;15.520;2023-06-22T01:15:09;15.57;;;11.27;;
70420;SDS011;57848;51.938;15.520;2023-06-22T01:17:46;16.63;;;11.52;;
70420;SDS011;57848;51.938;15.520;2023-06-22T01:20:13;15.90;;;11.00;;
70420;SDS011;57848;51.938;15.520;2023-06-22T01:25:43;17.80;;;11.90;;
70420;SDS011;57848;51.938;15.520;2023-06-22T01:30:46;18.55;;;12.35;;
70420;SDS011;57848;51.938;15.520;2023-06-22T01:33:14;17.03;;;12.73;;
70420;SDS011;57848;51.938;15.520;2023-06-22T01:35:41;17.45;;;12.00;;
70420;SDS011;57848;51.938;15.520;2023-06-22T01:38:07;18.45;;;12.68;;
70420;SDS011;57848;51.938;15.520;2023-06-22T01:40:33;17.55;;;13.25;;
70420;SDS011;57848;51.938;15.520;2023-06-22T01:43:00;21.40;;;14.88;;
70420;SDS011;57848;51.938;15.520;2023-06-22T01:45:27;20.63;;;14.87;;
70420;SDS011;57848;51.938;15.520;2023-06-22T01:47:53;19.60;;;14.00;;
70420;SDS011;57848;51.938;15.520;2023-06-22T01:50:19;20.13;;;13.30;;
70420;SDS011;57848;51.938;15.520;2023-06-22T01:52:45;21.33;;;13.52;;
70420;SDS011;57848;51.938;15.520;2023-06-22T01:55:10;19.20;;;12.93;;
70420;SDS011;57848;51.938;15.520;2023-06-22T01:57:36;20.60;;;13.47;;
70420;SDS011;57848;51.938;15.520;2023-06-22T02:00:13;18.08;;;13.15;;
70420;SDS011;57848;51.938;15.520;2023-06-22T02:02:49;21.85;;;13.93;;
70420;SDS011;57848;51.938;15.520;2023-06-22T02:05:19;18.92;;;13.45;;
70420;SDS011;57848;51.938;15.520;2023-06-22T02:07:53;24.97;;;16.10;;
70420;SDS011;57848;51.938;15.520;2023-06-22T02:10:25;23.50;;;14.88;;
70420;SDS011;57848;51.938;15.520;2023-06-22T02:12:55;23.90;;;14.00;;
70420;SDS011;57848;51.938;15.520;2023-06-22T02:15:22;21.23;;;14.57;;
70420;SDS011;57848;51.938;15.520;2023-06-22T02:17:52;21.08;;;13.65;;
70420;SDS011;57848;51.938;15.520;2023-06-22T02:20:18;20.43;;;13.57;;
70420;SDS011;57848;51.938;15.520;2023-06-22T02:22:43;19.07;;;12.60;;
70420;SDS011;57848;51.938;15.520;2023-06-22T02:25:10;19.10;;;12.70;;
70420;SDS011;57848;51.938;15.520;2023-06-22T02:27:35;18.35;;;12.73;;
70420;SDS011;57848;51.938;15.520;2023-06-22T02:30:01;19.23;;;13.03;;
70420;SDS011;57848;51.938;15.520;2023-06-22T02:32:26;17.40;;;13.27;;
70420;SDS011;57848;51.938;15.520;2023-06-22T02:34:52;17.03;;;12.73;;
70420;SDS011;57848;51.938;15.520;2023-06-22T02:37:18;19.47;;;13.57;;
70420;SDS011;57848;51.938;15.520;2023-06-22T02:39:43;18.92;;;13.43;;
70420;SDS011;57848;51.938;15.520;2023-06-22T02:42:08;17.50;;;11.90;;
70420;SDS011;57848;51.938;15.520;2023-06-22T02:44:35;17.67;;;12.68;;
70420;SDS011;57848;51.938;15.520;2023-06-22T02:47:01;18.17;;;12.90;;
70420;SDS011;57848;51.938;15.520;2023-06-22T02:49:27;18.38;;;12.70;;
70420;SDS011;57848;51.938;15.520;2023-06-22T02:51:53;18.92;;;13.43;;
70420;SDS011;57848;51.938;15.520;2023-06-22T02:54:21;18.27;;;12.83;;
70420;SDS011;57848;51.938;15.520;2023-06-22T02:56:48;18.85;;;13.65;;
70420;SDS011;57848;51.938;15.520;2023-06-22T02:59:13;22.77;;;13.77;;
70420;SDS011;57848;51.938;15.520;2023-06-22T03:01:39;19.60;;;13.68;;
70420;SDS011;57848;51.938;15.520;2023-06-22T03:04:09;19.93;;;13.03;;
70420;SDS011;57848;51.938;15.520;2023-06-22T03:06:35;17.98;;;13.30;;
70420;SDS011;57848;51.938;15.520;2023-06-22T03:09:02;17.50;;;13.10;;
70420;SDS011;57848;51.938;15.520;2023-06-22T03:11:31;21.20;;;13.47;;
70420;SDS011;57848;51.938;15.520;2023-06-22T03:13:57;17.90;;;12.98;;
70420;SDS011;57848;51.938;15.520;2023-06-22T03:16:23;18.58;;;13.80;;
70420;SDS011;57848;51.938;15.520;2023-06-22T03:18:49;19.20;;;13.83;;
70420;SDS011;57848;51.938;15.520;2023-06-22T03:21:14;22.60;;;14.38;;
70420;SDS011;57848;51.938;15.520;2023-06-22T03:23:40;20.37;;;13.30;;
70420;SDS011;57848;51.938;15.520;2023-06-22T03:26:06;21.38;;;13.52;;
70420;SDS011;57848;51.938;15.520;2023-06-22T03:28:32;19.92;;;13.35;;
70420;SDS011;57848;51.938;15.520;2023-06-22T03:30:57;19.27;;;14.17;;
70420;SDS011;57848;51.938;15.520;2023-06-22T03:33:23;21.10;;;14.90;;
70420;SDS011;57848;51.938;15.520;2023-06-22T03:35:49;24.00;;;15.57;;
70420;SDS011;57848;51.938;15.520;2023-06-22T03:38:15;21.10;;;14.63;;
70420;SDS011;57848;51.938;15.520;2023-06-22T03:40:41;23.33;;;16.15;;
70420;SDS011;57848;51.938;15.520;2023-06-22T03:43:06;19.33;;;14.07;;
70420;SDS011;57848;51.938;15.520;2023-06-22T03:45:32;20.70;;;14.43;;
70420;SDS011;57848;51.938;15.520;2023-06-22T03:47:57;17.90;;;13.30;;
70420;SDS011;57848;51.938;15.520;2023-06-22T03:50:23;21.40;;;15.10;;
70420;SDS011;57848;51.938;15.520;2023-06-22T03:52:48;22.05;;;14.85;;
70420;SDS011;57848;51.938;15.520;2023-06-22T03:55:13;21.10;;;14.20;;
70420;SDS011;57848;51.938;15.520;2023-06-22T03:57:39;19.87;;;15.07;;
70420;SDS011;57848;51.938;15.520;2023-06-22T04:00:04;22.13;;;16.07;;
70420;SDS011;57848;51.938;15.520;2023-06-22T04:02:37;23.52;;;15.55;;
70420;SDS011;57848;51.938;15.520;2023-06-22T04:05:03;22.05;;;16.35;;
70420;SDS011;57848;51.938;15.520;2023-06-22T04:07:28;19.90;;;14.53;;
70420;SDS011;57848;51.938;15.520;2023-06-22T04:09:53;19.40;;;13.87;;
70420;SDS011;57848;51.938;15.520;2023-06-22T04:12:19;19.30;;;14.13;;
70420;SDS011;57848;51.938;15.520;2023-06-22T04:14:44;19.45;;;13.65;;
70420;SDS011;57848;51.938;15.520;2023-06-22T04:17:10;21.33;;;15.50;;
70420;SDS011;57848;51.938;15.520;2023-06-22T04:19:35;20.97;;;14.30;;
70420;SDS011;57848;51.938;15.520;2023-06-22T04:22:00;20.23;;;13.97;;
70420;SDS011;57848;51.938;15.520;2023-06-22T04:24:26;22.17;;;14.15;;
70420;SDS011;57848;51.938;15.520;2023-06-22T04:26:51;20.73;;;15.13;;
70420;SDS011;57848;51.938;15.520;2023-06-22T04:29:19;21.63;;;14.95;;
70420;SDS011;57848;51.938;15.520;2023-06-22T04:31:45;19.63;;;14.13;;
70420;SDS011;57848;51.938;15.520;2023-06-22T04:34:15;18.40;;;13.05;;
70420;SDS011;57848;51.938;15.520;2023-06-22T04:36:41;18.27;;;13.02;;
70420;SDS011;57848;51.938;15.520;2023-06-22T04:39:07;16.03;;;12.63;;
70420;SDS011;57848;51.938;15.520;2023-06-22T04:41:38;16.10;;;12.00;;
70420;SDS011;57848;51.938;15.520;2023-06-22T04:44:19;15.93;;;11.65;;
70420;SDS011;57848;51.938;15.520;2023-06-22T04:46:52;17.53;;;11.63;;
70420;SDS011;57848;51.938;15.520;2023-06-22T04:49:28;16.63;;;12.30;;
70420;SDS011;57848;51.938;15.520;2023-06-22T04:52:01;18.73;;;12.23;;
70420;SDS011;57848;51.938;15.520;2023-06-22T04:54:28;18.65;;;11.68;;
70420;SDS011;57848;51.938;15.520;2023-06-22T04:56:54;17.73;;;12.20;;
70420;SDS011;57848;51.938;15.520;2023-06-22T04:59:23;16.33;;;11.45;;
70420;SDS011;57848;51.938;15.520;2023-06-22T05:01:53;15.80;;;11.57;;
70420;SDS011;57848;51.938;15.520;2023-06-22T05:04:21;15.75;;;11.73;;
70420;SDS011;57848;51.938;15.520;2023-06-22T05:06:48;16.50;;;12.13;;
70420;SDS011;57848;51.938;15.520;2023-06-22T05:09:14;15.68;;;11.05;;
70420;SDS011;57848;51.938;15.520;2023-06-22T05:11:39;14.77;;;9.93;;
70420;SDS011;57848;51.938;15.520;2023-06-22T05:14:05;15.00;;;10.45;;
70420;SDS011;57848;51.938;15.520;2023-06-22T05:16:30;14.00;;;10.13;;
70420;SDS011;57848;51.938;15.520;2023-06-22T05:18:56;14.60;;;10.73;;
70420;SDS011;57848;51.938;15.520;2023-06-22T05:21:26;17.20;;;9.25;;
70420;SDS011;57848;51.938;15.520;2023-06-22T05:23:54;13.60;;;8.60;;
70420;SDS011;57848;51.938;15.520;2023-06-22T05:26:21;13.10;;;8.73;;
70420;SDS011;57848;51.938;15.520;2023-06-22T05:28:47;14.35;;;9.20;;
70420;SDS011;57848;51.938;15.520;2023-06-22T05:31:13;12.65;;;8.05;;
70420;SDS011;57848;51.938;15.520;2023-06-22T05:33:41;12.75;;;8.43;;
70420;SDS011;57848;51.938;15.520;2023-06-22T05:36:07;12.90;;;7.97;;
70420;SDS011;57848;51.938;15.520;2023-06-22T05:38:33;13.02;;;8.32;;
70420;SDS011;57848;51.938;15.520;2023-06-22T05:40:59;11.93;;;7.55;;
70420;SDS011;57848;51.938;15.520;2023-06-22T05:43:24;13.73;;;8.10;;
70420;SDS011;57848;51.938;15.520;2023-06-22T05:45:50;12.83;;;7.70;;
70420;SDS011;57848;51.938;15.520;2023-06-22T05:48:16;11.65;;;7.40;;
70420;SDS011;57848;51.938;15.520;2023-06-22T05:50:41;13.23;;;7.53;;
70420;SDS011;57848;51.938;15.520;2023-06-22T05:53:07;12.70;;;8.23;;
70420;SDS011;57848;51.938;15.520;2023-06-22T05:55:32;14.77;;;8.47;;
70420;SDS011;57848;51.938;15.520;2023-06-22T05:57:58;11.73;;;7.67;;
70420;SDS011;57848;51.938;15.520;2023-06-22T06:00:24;11.88;;;7.40;;
70420;SDS011;57848;51.938;15.520;2023-06-22T06:02:49;12.83;;;7.80;;
70420;SDS011;57848;51.938;15.520;2023-06-22T06:05:15;11.00;;;7.20;;
70420;SDS011;57848;51.938;15.520;2023-06-22T06:07:44;13.00;;;8.23;;
70420;SDS011;57848;51.938;15.520;2023-06-22T06:10:10;15.00;;;8.43;;
70420;SDS011;57848;51.938;15.520;2023-06-22T06:12:36;13.48;;;8.05;;
70420;SDS011;57848;51.938;15.520;2023-06-22T06:15:02;12.20;;;6.93;;
70420;SDS011;57848;51.938;15.520;2023-06-22T06:17:28;13.32;;;7.60;;
70420;SDS011;57848;51.938;15.520;2023-06-22T06:19:53;11.90;;;7.10;;
70420;SDS011;57848;51.938;15.520;2023-06-22T06:22:18;13.40;;;8.07;;
70420;SDS011;57848;51.938;15.520;2023-06-22T06:24:46;11.65;;;7.97;;
70420;SDS011;57848;51.938;15.520;2023-06-22T06:27:12;12.23;;;7.72;;
70420;SDS011;57848;51.938;15.520;2023-06-22T06:29:38;12.77;;;7.87;;
70420;SDS011;57848;51.938;15.520;2023-06-22T06:32:03;12.52;;;7.72;;
70420;SDS011;57848;51.938;15.520;2023-06-22T06:34:29;12.00;;;7.77;;
70420;SDS011;57848;51.938;15.520;2023-06-22T06:36:54;12.70;;;8.03;;
70420;SDS011;57848;51.938;15.520;2023-06-22T06:39:20;11.43;;;7.67;;
70420;SDS011;57848;51.938;15.520;2023-06-22T06:41:45;14.32;;;8.25;;
70420;SDS011;57848;51.938;15.520;2023-06-22T06:44:14;10.95;;;7.80;;
70420;SDS011;57848;51.938;15.520;2023-06-22T06:46:39;13.17;;;7.73;;
70420;SDS011;57848;51.938;15.520;2023-06-22T06:49:05;13.60;;;7.97;;
70420;SDS011;57848;51.938;15.520;2023-06-22T06:51:30;10.97;;;7.77;;
70420;SDS011;57848;51.938;15.520;2023-06-22T06:53:55;11.63;;;7.97;;
70420;SDS011;57848;51.938;15.520;2023-06-22T06:56:21;12.57;;;7.53;;
70420;SDS011;57848;51.938;15.520;2023-06-22T06:58:49;10.83;;;7.07;;
70420;SDS011;57848;51.938;15.520;2023-06-22T07:01:15;11.38;;;7.60;;
70420;SDS011;57848;51.938;15.520;2023-06-22T07:03:40;13.53;;;7.70;;
70420;SDS011;57848;51.938;15.520;2023-06-22T07:06:06;13.20;;;7.90;;
70420;SDS011;57848;51.938;15.520;2023-06-22T07:08:31;14.63;;;7.83;;
70420;SDS011;57848;51.938;15.520;2023-06-22T07:10:57;11.47;;;7.70;;
70420;SDS011;57848;51.938;15.520;2023-06-22T07:13:23;11.98;;;7.85;;
70420;SDS011;57848;51.938;15.520;2023-06-22T07:15:48;11.47;;;7.43;;
70420;SDS011;57848;51.938;15.520;2023-06-22T07:18:14;11.23;;;7.03;;
70420;SDS011;57848;51.938;15.520;2023-06-22T07:20:39;12.82;;;7.22;;
70420;SDS011;57848;51.938;15.520;2023-06-22T07:23:06;11.97;;;7.03;;
70420;SDS011;57848;51.938;15.520;2023-06-22T07:25:31;11.57;;;7.00;;
70420;SDS011;57848;51.938;15.520;2023-06-22T07:27:57;10.67;;;7.47;;
70420;SDS011;57848;51.938;15.520;2023-06-22T07:30:24;15.10;;;8.38;;
70420;SDS011;57848;51.938;15.520;2023-06-22T07:32:50;12.20;;;7.20;;
70420;SDS011;57848;51.938;15.520;2023-06-22T07:35:15;11.83;;;7.50;;
70420;SDS011;57848;51.938;15.520;2023-06-22T07:37:41;11.93;;;6.88;;
70420;SDS011;57848;51.938;15.520;2023-06-22T07:40:07;11.95;;;7.57;;
70420;SDS011;57848;51.938;15.520;2023-06-22T07:42:33;11.73;;;7.05;;
70420;SDS011;57848;51.938;15.520;2023-06-22T07:44:59;13.67;;;7.47;;
70420;SDS011;57848;51.938;15.520;2023-06-22T07:47:24;10.73;;;6.80;;
70420;SDS011;57848;51.938;15.520;2023-06-22T07:49:53;10.75;;;7.18;;
70420;SDS011;57848;51.938;15.520;2023-06-22T07:52:20;11.75;;;7.15;;
70420;SDS011;57848;51.938;15.520;2023-06-22T07:54:46;10.10;;;6.60;;
70420;SDS011;57848;51.938;15.520;2023-06-22T07:57:12;10.23;;;6.85;;
70420;SDS011;57848;51.938;15.520;2023-06-22T07:59:37;11.73;;;7.57;;
70420;SDS011;57848;51.938;15.520;2023-06-22T08:02:03;12.65;;;7.18;;
70420;SDS011;57848;51.938;15.520;2023-06-22T08:04:29;11.20;;;7.20;;
70420;SDS011;57848;51.938;15.520;2023-06-22T08:06:56;12.43;;;7.32;;
70420;SDS011;57848;51.938;15.520;2023-06-22T08:09:22;11.77;;;7.18;;
70420;SDS011;57848;51.938;15.520;2023-06-22T08:11:47;10.67;;;6.80;;
70420;SDS011;57848;51.938;15.520;2023-06-22T08:14:14;11.82;;;7.55;;
70420;SDS011;57848;51.938;15.520;2023-06-22T08:16:40;13.97;;;7.03;;
70420;SDS011;57848;51.938;15.520;2023-06-22T08:19:06;12.05;;;7.50;;
70420;SDS011;57848;51.938;15.520;2023-06-22T08:21:32;14.20;;;7.80;;
70420;SDS011;57848;51.938;15.520;2023-06-22T08:36:03;10.32;;;5.90;;
70420;SDS011;57848;51.938;15.520;2023-06-22T08:38:31;8.80;;;5.63;;
70420;SDS011;57848;51.938;15.520;2023-06-22T08:40:57;10.37;;;5.70;;
70420;SDS011;57848;51.938;15.520;2023-06-22T08:43:22;11.45;;;5.78;;
70420;SDS011;57848;51.938;15.520;2023-06-22T08:45:48;13.50;;;6.17;;
70420;SDS011;57848;51.938;15.520;2023-06-22T08:48:13;10.00;;;5.93;;
70420;SDS011;57848;51.938;15.520;2023-06-22T08:50:39;9.80;;;5.85;;
70420;SDS011;57848;51.938;15.520;2023-06-22T08:53:05;12.35;;;5.97;;
70420;SDS011;57848;51.938;15.520;2023-06-22T08:55:31;9.70;;;5.33;;
70420;SDS011;57848;51.938;15.520;2023-06-22T08:57:56;9.30;;;5.40;;
70420;SDS011;57848;51.938;15.520;2023-06-22T09:00:22;10.17;;;4.80;;
70420;SDS011;57848;51.938;15.520;2023-06-22T09:02:47;8.13;;;5.13;;
70420;SDS011;57848;51.938;15.520;2023-06-22T09:05:13;9.73;;;4.35;;
70420;SDS011;57848;51.938;15.520;2023-06-22T09:07:39;8.57;;;4.50;;
70420;SDS011;57848;51.938;15.520;2023-06-22T09:10:05;8.13;;;4.28;;
70420;SDS011;57848;51.938;15.520;2023-06-22T09:12:31;14.98;;;5.35;;
70420;SDS011;57848;51.938;15.520;2023-06-22T09:14:58;10.02;;;4.93;;
70420;SDS011;57848;51.938;15.520;2023-06-22T09:17:27;9.70;;;4.97;;
70420;SDS011;57848;51.938;15.520;2023-06-22T09:19:53;10.37;;;5.63;;
70420;SDS011;57848;51.938;15.520;2023-06-22T09:22:19;9.20;;;4.90;;
70420;SDS011;57848;51.938;15.520;2023-06-22T09:24:44;9.45;;;5.10;;
70420;SDS011;57848;51.938;15.520;2023-06-22T09:27:10;14.20;;;5.30;;
70420;SDS011;57848;51.938;15.520;2023-06-22T09:29:35;8.93;;;4.60;;
70420;SDS011;57848;51.938;15.520;2023-06-22T09:32:00;9.07;;;4.82;;
70420;SDS011;57848;51.938;15.520;2023-06-22T09:34:26;10.20;;;5.00;;
70420;SDS011;57848;51.938;15.520;2023-06-22T09:36:52;9.93;;;5.80;;
70420;SDS011;57848;51.938;15.520;2023-06-22T09:39:18;8.40;;;5.13;;
70420;SDS011;57848;51.938;15.520;2023-06-22T09:41:43;13.82;;;5.45;;
70420;SDS011;57848;51.938;15.520;2023-06-22T09:44:09;9.27;;;4.97;;
70420;SDS011;57848;51.938;15.520;2023-06-22T09:46:34;7.87;;;4.50;;
70420;SDS011;57848;51.938;15.520;2023-06-22T09:49:00;8.98;;;4.50;;
70420;SDS011;57848;51.938;15.520;2023-06-22T09:51:25;9.17;;;4.50;;
70420;SDS011;57848;51.938;15.520;2023-06-22T09:53:51;13.13;;;4.97;;
70420;SDS011;57848;51.938;15.520;2023-06-22T09:56:17;8.73;;;4.63;;
70420;SDS011;57848;51.938;15.520;2023-06-22T09:58:43;7.90;;;4.33;;
70420;SDS011;57848;51.938;15.520;2023-06-22T10:01:09;8.77;;;4.50;;
70420;SDS011;57848;51.938;15.520;2023-06-22T10:03:35;8.82;;;4.80;;
70420;SDS011;57848;51.938;15.520;2023-06-22T10:06:01;8.20;;;4.18;;
70420;SDS011;57848;51.938;15.520;2023-06-22T10:08:27;7.70;;;4.27;;
70420;SDS011;57848;51.938;15.520;2023-06-22T10:10:52;8.17;;;4.40;;
70420;SDS011;57848;51.938;15.520;2023-06-22T10:13:18;8.38;;;4.78;;
70420;SDS011;57848;51.938;15.520;2023-06-22T10:15:44;9.17;;;4.17;;
70420;SDS011;57848;51.938;15.520;2023-06-22T10:18:14;8.10;;;4.85;;
70420;SDS011;57848;51.938;15.520;2023-06-22T10:20:43;8.57;;;5.22;;
70420;SDS011;57848;51.938;15.520;2023-06-22T10:23:08;7.97;;;4.65;;
70420;SDS011;57848;51.938;15.520;2023-06-22T10:25:34;10.23;;;4.70;;
70420;SDS011;57848;51.938;15.520;2023-06-22T10:27:59;11.23;;;5.03;;
70420;SDS011;57848;51.938;15.520;2023-06-22T10:30:24;10.07;;;4.33;;
70420;SDS011;57848;51.938;15.520;2023-06-22T10:32:50;10.37;;;4.70;;
70420;SDS011;57848;51.938;15.520;2023-06-22T10:35:15;7.95;;;4.30;;
70420;SDS011;57848;51.938;15.520;2023-06-22T10:37:44;13.47;;;5.23;;
70420;SDS011;57848;51.938;15.520;2023-06-22T10:40:13;7.53;;;4.45;;
70420;SDS011;57848;51.938;15.520;2023-06-22T10:42:40;9.03;;;4.47;;
70420;SDS011;57848;51.938;15.520;2023-06-22T10:45:06;7.93;;;4.35;;
70420;SDS011;57848;51.938;15.520;2023-06-22T10:47:32;7.65;;;4.00;;
70420;SDS011;57848;51.938;15.520;2023-06-22T10:49:57;7.27;;;4.03;;
70420;SDS011;57848;51.938;15.520;2023-06-22T10:52:23;6.67;;;3.80;;
70420;SDS011;57848;51.938;15.520;2023-06-22T10:54:48;8.57;;;4.20;;
70420;SDS011;57848;51.938;15.520;2023-06-22T10:57:13;8.00;;;4.40;;
70420;SDS011;57848;51.938;15.520;2023-06-22T10:59:39;7.47;;;4.30;;
70420;SDS011;57848;51.938;15.520;2023-06-22T11:02:04;7.87;;;4.30;;
70420;SDS011;57848;51.938;15.520;2023-06-22T11:04:30;7.40;;;4.47;;
70420;SDS011;57848;51.938;15.520;2023-06-22T11:06:55;7.13;;;4.40;;
70420;SDS011;57848;51.938;15.520;2023-06-22T11:09:21;9.77;;;4.50;;
70420;SDS011;57848;51.938;15.520;2023-06-22T11:11:47;7.85;;;4.20;;
70420;SDS011;57848;51.938;15.520;2023-06-22T11:14:13;10.38;;;4.40;;
70420;SDS011;57848;51.938;15.520;2023-06-22T11:16:38;9.37;;;4.07;;
70420;SDS011;57848;51.938;15.520;2023-06-22T11:19:04;8.70;;;4.03;;
70420;SDS011;57848;51.938;15.520;2023-06-22T11:21:30;7.80;;;4.25;;
70420;SDS011;57848;51.938;15.520;2023-06-22T11:23:56;9.05;;;4.80;;
70420;SDS011;57848;51.938;15.520;2023-06-22T11:26:22;8.57;;;4.32;;
70420;SDS011;57848;51.938;15.520;2023-06-22T11:28:49;9.43;;;4.40;;
70420;SDS011;57848;51.938;15.520;2023-06-22T11:31:14;9.03;;;5.03;;
70420;SDS011;57848;51.938;15.520;2023-06-22T11:33:39;9.48;;;4.25;;
70420;SDS011;57848;51.938;15.520;2023-06-22T11:36:05;10.67;;;4.70;;
70420;SDS011;57848;51.938;15.520;2023-06-22T11:38:30;8.30;;;4.20;;
70420;SDS011;57848;51.938;15.520;2023-06-22T11:40:57;9.73;;;4.53;;
70420;SDS011;57848;51.938;15.520;2023-06-22T11:43:23;9.57;;;4.47;;
70420;SDS011;57848;51.938;15.520;2023-06-22T11:45:48;7.13;;;4.57;;
70420;SDS011;57848;51.938;15.520;2023-06-22T11:48:14;8.00;;;4.18;;
70420;SDS011;57848;51.938;15.520;2023-06-22T11:50:39;7.73;;;4.13;;
70420;SDS011;57848;51.938;15.520;2023-06-22T11:53:05;8.23;;;4.50;;
70420;SDS011;57848;51.938;15.520;2023-06-22T11:55:30;8.17;;;4.40;;
70420;SDS011;57848;51.938;15.520;2023-06-22T11:57:56;7.40;;;4.50;;
70420;SDS011;57848;51.938;15.520;2023-06-22T12:00:28;7.45;;;4.35;;
70420;SDS011;57848;51.938;15.520;2023-06-22T12:02:54;8.82;;;4.90;;
70420;SDS011;57848;51.938;15.520;2023-06-22T12:05:21;8.38;;;4.63;;
70420;SDS011;57848;51.938;15.520;2023-06-22T12:07:47;8.63;;;4.50;;
70420;SDS011;57848;51.938;15.520;2023-06-22T12:10:13;8.50;;;4.17;;
70420;SDS011;57848;51.938;15.520;2023-06-22T12:12:38;9.13;;;4.43;;
70420;SDS011;57848;51.938;15.520;2023-06-22T12:15:03;8.23;;;4.05;;
70420;SDS011;57848;51.938;15.520;2023-06-22T12:17:29;9.47;;;4.63;;
70420;SDS011;57848;51.938;15.520;2023-06-22T12:19:55;8.77;;;4.72;;
70420;SDS011;57848;51.938;15.520;2023-06-22T12:22:20;8.63;;;4.53;;
70420;SDS011;57848;51.938;15.520;2023-06-22T12:24:46;8.50;;;4.20;;
70420;SDS011;57848;51.938;15.520;2023-06-22T12:27:11;8.18;;;4.55;;
70420;SDS011;57848;51.938;15.520;2023-06-22T12:29:37;7.33;;;4.23;;
70420;SDS011;57848;51.938;15.520;2023-06-22T12:32:02;8.30;;;4.43;;
70420;SDS011;57848;51.938;15.520;2023-06-22T12:34:28;9.33;;;4.50;;
70420;SDS011;57848;51.938;15.520;2023-06-22T12:36:53;9.32;;;4.28;;
70420;SDS011;57848;51.938;15.520;2023-06-22T12:39:19;7.50;;;4.27;;
70420;SDS011;57848;51.938;15.520;2023-06-22T12:41:45;7.45;;;4.43;;
70420;SDS011;57848;51.938;15.520;2023-06-22T12:44:10;8.87;;;4.67;;
70420;SDS011;57848;51.938;15.520;2023-06-22T12:46:36;8.23;;;4.40;;
70420;SDS011;57848;51.938;15.520;2023-06-22T12:49:03;7.63;;;4.70;;
70420;SDS011;57848;51.938;15.520;2023-06-22T12:51:29;8.38;;;4.70;;
70420;SDS011;57848;51.938;15.520;2023-06-22T12:53:55;11.13;;;4.57;;
70420;SDS011;57848;51.938;15.520;2023-06-22T12:56:20;8.10;;;4.23;;
70420;SDS011;57848;51.938;15.520;2023-06-22T12:58:46;9.63;;;4.50;;
70420;SDS011;57848;51.938;15.520;2023-06-22T13:01:11;7.63;;;4.57;;
70420;SDS011;57848;51.938;15.520;2023-06-22T13:03:37;7.70;;;4.18;;
70420;SDS011;57848;51.938;15.520;2023-06-22T13:06:02;9.07;;;4.60;;
70420;SDS011;57848;51.938;15.520;2023-06-22T13:08:28;7.78;;;4.68;;
70420;SDS011;57848;51.938;15.520;2023-06-22T13:10:54;7.73;;;4.70;;
70420;SDS011;57848;51.938;15.520;2023-06-22T13:13:23;9.13;;;4.55;;
70420;SDS011;57848;51.938;15.520;2023-06-22T13:15:49;8.30;;;4.65;;
70420;SDS011;57848;51.938;15.520;2023-06-22T13:18:15;7.90;;;4.50;;
70420;SDS011;57848;51.938;15.520;2023-06-22T13:20:40;11.43;;;4.60;;
70420;SDS011;57848;51.938;15.520;2023-06-22T13:23:06;10.45;;;5.00;;
70420;SDS011;57848;51.938;15.520;2023-06-22T13:25:31;8.83;;;5.10;;
70420;SDS011;57848;51.938;15.520;2023-06-22T13:27:57;9.30;;;5.30;;
70420;SDS011;57848;51.938;15.520;2023-06-22T13:30:22;8.30;;;4.90;;
70420;SDS011;57848;51.938;15.520;2023-06-22T13:32:47;9.57;;;5.17;;
70420;SDS011;57848;51.938;15.520;2023-06-22T13:35:13;9.90;;;4.93;;
70420;SDS011;57848;51.938;15.520;2023-06-22T13:37:38;9.00;;;4.67;;
70420;SDS011;57848;51.938;15.520;2023-06-22T13:40:04;8.37;;;4.60;;
70420;SDS011;57848;51.938;15.520;2023-06-22T13:42:31;7.95;;;4.78;;
70420;SDS011;57848;51.938;15.520;2023-06-22T13:44:57;7.20;;;4.13;;
70420;SDS011;57848;51.938;15.520;2023-06-22T13:47:22;8.93;;;4.37;;
70420;SDS011;57848;51.938;15.520;2023-06-22T13:49:49;8.23;;;4.65;;
70420;SDS011;57848;51.938;15.520;2023-06-22T13:52:14;9.60;;;4.20;;
70420;SDS011;57848;51.938;15.520;2023-06-22T13:54:40;8.45;;;4.43;;
70420;SDS011;57848;51.938;15.520;2023-06-22T13:57:05;9.87;;;4.30;;
70420;SDS011;57848;51.938;15.520;2023-06-22T13:59:31;7.80;;;4.17;;
70420;SDS011;57848;51.938;15.520;2023-06-22T14:01:56;7.97;;;4.40;;
70420;SDS011;57848;51.938;15.520;2023-06-22T14:04:24;9.35;;;4.10;;
70420;SDS011;57848;51.938;15.520;2023-06-22T14:06:50;8.23;;;4.70;;
70420;SDS011;57848;51.938;15.520;2023-06-22T14:09:15;9.00;;;4.68;;
70420;SDS011;57848;51.938;15.520;2023-06-22T14:11:41;7.53;;;4.23;;
70420;SDS011;57848;51.938;15.520;2023-06-22T14:14:06;7.67;;;4.17;;
70420;SDS011;57848;51.938;15.520;2023-06-22T14:16:31;7.83;;;4.10;;
70420;SDS011;57848;51.938;15.520;2023-06-22T14:18:57;7.73;;;4.13;;
70420;SDS011;57848;51.938;15.520;2023-06-22T14:21:22;8.63;;;4.70;;
70420;SDS011;57848;51.938;15.520;2023-06-22T14:23:47;8.02;;;4.28;;
70420;SDS011;57848;51.938;15.520;2023-06-22T14:26:17;7.43;;;4.17;;
70420;SDS011;57848;51.938;15.520;2023-06-22T14:28:43;9.18;;;4.07;;
70420;SDS011;57848;51.938;15.520;2023-06-22T14:31:12;8.15;;;4.32;;
70420;SDS011;57848;51.938;15.520;2023-06-22T14:33:39;7.65;;;4.55;;